Time;durP1;ratioP1;P1;durP2;ratioP2;P2;SDS_P1;SDS_P2;PMS_P1;PMS_P2;Temp;Humidity;BMP_temperature;BMP_pressure;BME280_temperature;BME280_humidity;BME280_pressure;Samples;Min_cycle;Max_cycle;Signal;HPM_P1;HPM_P2
2022/11/12 00:02:14;;;;;;;26.98;14.00;;;;;;;;;;5014462;28;20045;-79
2022/11/12 00:04:40;;;;;;;23.48;14.30;;;;;;;;;;5014210;28;20029;-79
2022/11/12 00:07:06;;;;;;;20.75;13.52;;;;;;;;;;5031722;28;20036;-79
2022/11/12 00:09:32;;;;;;;22.02;13.48;;;;;;;;;;5032002;28;20032;-79
2022/11/12 00:11:58;;;;;;;29.55;13.60;;;;;;;;;;5031799;28;20034;-79
2022/11/12 00:14:24;;;;;;;24.27;14.18;;;;;;;;;;5031820;28;20025;-79
2022/11/12 00:16:50;;;;;;;23.17;14.48;;;;;;;;;;5014303;28;20030;-79
2022/11/12 00:19:16;;;;;;;23.98;13.90;;;;;;;;;;5014218;28;20049;-79
2022/11/12 00:21:42;;;;;;;23.50;12.57;;;;;;;;;;5032192;28;20021;-79
2022/11/12 00:24:08;;;;;;;22.70;13.50;;;;;;;;;;5031596;28;20038;-79
2022/11/12 00:26:34;;;;;;;28.02;14.65;;;;;;;;;;5031375;28;20037;-78
2022/11/12 00:29:00;;;;;;;21.08;12.85;;;;;;;;;;5031446;28;20029;-79
2022/11/12 00:31:26;;;;;;;23.75;13.88;;;;;;;;;;5031562;28;20100;-79
2022/11/12 00:33:53;;;;;;;20.92;13.48;;;;;;;;;;5013998;28;20072;-79
2022/11/12 00:36:20;;;;;;;22.73;13.50;;;;;;;;;;5033875;28;20021;-79
2022/11/12 00:38:46;;;;;;;19.77;12.95;;;;;;;;;;5035387;28;20049;-79
2022/11/12 00:41:12;;;;;;;21.67;13.68;;;;;;;;;;5035689;28;20674;-79
2022/11/12 00:43:38;;;;;;;25.38;13.40;;;;;;;;;;5030244;28;20387;-79
2022/11/12 00:46:04;;;;;;;23.48;13.60;;;;;;;;;;5035479;28;20026;-79
2022/11/12 00:48:30;;;;;;;24.17;12.82;;;;;;;;;;5035549;28;20030;-79
2022/11/12 00:51:00;;;;;;;21.83;13.57;;;;;;;;;;5035217;28;20471;-79
2022/11/12 00:53:26;;;;;;;23.02;14.65;;;;;;;;;;5035247;28;20040;-79
2022/11/12 00:55:52;;;;;;;25.85;13.85;;;;;;;;;;5017276;28;20021;-79
2022/11/12 00:58:18;;;;;;;25.65;13.60;;;;;;;;;;5035160;28;20096;-79
2022/11/12 01:00:44;;;;;;;30.00;13.85;;;;;;;;;;5017060;28;20476;-79
2022/11/12 01:03:10;;;;;;;24.23;14.25;;;;;;;;;;5035194;28;20456;-79
2022/11/12 01:05:36;;;;;;;26.77;14.07;;;;;;;;;;5017439;28;20025;-79
2022/11/12 01:08:02;;;;;;;25.15;13.98;;;;;;;;;;5035121;28;20022;-79
2022/11/12 01:10:28;;;;;;;23.75;14.13;;;;;;;;;;5034840;28;20473;-78
2022/11/12 01:12:54;;;;;;;25.13;14.40;;;;;;;;;;5017100;28;20388;-79
2022/11/12 01:15:20;;;;;;;22.75;14.18;;;;;;;;;;5034788;28;20109;-79
2022/11/12 01:17:46;;;;;;;30.70;14.77;;;;;;;;;;5034747;28;20026;-79
2022/11/12 01:20:12;;;;;;;28.00;16.27;;;;;;;;;;5035060;28;20037;-79
2022/11/12 01:22:38;;;;;;;26.83;15.65;;;;;;;;;;5034924;28;20026;-79
2022/11/12 01:25:05;;;;;;;23.90;14.30;;;;;;;;;;5034740;28;20140;-79
2022/11/12 01:27:31;;;;;;;30.65;14.70;;;;;;;;;;5016762;28;20029;-79
2022/11/12 01:29:58;;;;;;;27.60;15.57;;;;;;;;;;5034347;28;20060;-79
2022/11/12 01:32:24;;;;;;;27.13;14.98;;;;;;;;;;5034328;28;20025;-79
2022/11/12 01:34:50;;;;;;;30.95;16.17;;;;;;;;;;5016965;28;20029;-79
2022/11/12 01:37:16;;;;;;;29.05;17.67;;;;;;;;;;5034193;28;20017;-78
2022/11/12 01:39:42;;;;;;;39.22;17.20;;;;;;;;;;5034216;28;20046;-79
2022/11/12 01:42:09;;;;;;;35.13;17.50;;;;;;;;;;5033664;28;20029;-79
2022/11/12 01:44:38;;;;;;;34.53;17.73;;;;;;;;;;5034634;28;20025;-79
2022/11/12 01:47:04;;;;;;;40.63;19.67;;;;;;;;;;5033520;28;20032;-78
2022/11/12 01:49:46;;;;;;;34.45;17.60;;;;;;;;;;5034398;28;20052;-78
2022/11/12 01:52:27;;;;;;;40.80;19.77;;;;;;;;;;5034020;28;20033;-78
2022/11/12 01:54:54;;;;;;;37.05;17.60;;;;;;;;;;5016284;28;20283;-78
2022/11/12 01:57:24;;;;;;;35.85;17.45;;;;;;;;;;5033922;28;20021;-78
2022/11/12 01:59:52;;;;;;;34.78;17.10;;;;;;;;;;5033986;28;20033;-78
2022/11/12 02:02:18;;;;;;;30.02;16.02;;;;;;;;;;5033814;28;20375;-78
2022/11/12 02:04:45;;;;;;;32.13;17.02;;;;;;;;;;5033846;28;20025;-79
2022/11/12 02:07:11;;;;;;;29.67;16.02;;;;;;;;;;5033960;28;20518;-78
2022/11/12 02:09:37;;;;;;;29.58;15.57;;;;;;;;;;5033664;28;20037;-78
2022/11/12 02:12:04;;;;;;;32.90;17.38;;;;;;;;;;5033500;28;20029;-78
2022/11/12 02:14:30;;;;;;;30.48;16.52;;;;;;;;;;5015867;28;20052;-78
2022/11/12 02:16:56;;;;;;;28.80;16.33;;;;;;;;;;5033515;28;20021;-78
2022/11/12 02:19:22;;;;;;;32.92;16.27;;;;;;;;;;5033698;28;20052;-78
2022/11/12 02:21:48;;;;;;;30.58;16.08;;;;;;;;;;5035547;28;20041;-79
2022/11/12 02:24:14;;;;;;;28.77;15.48;;;;;;;;;;5033842;28;20060;-79
2022/11/12 02:26:44;;;;;;;30.08;16.15;;;;;;;;;;5033352;28;20448;-79
2022/11/12 02:29:10;;;;;;;29.67;15.88;;;;;;;;;;5033049;28;20072;-79
2022/11/12 02:31:36;;;;;;;29.35;15.63;;;;;;;;;;5030868;28;20464;-79
2022/11/12 02:34:02;;;;;;;34.55;16.77;;;;;;;;;;5013486;28;20575;-79
2022/11/12 02:36:29;;;;;;;27.02;15.45;;;;;;;;;;5013512;28;20073;-79
2022/11/12 02:38:55;;;;;;;30.50;15.25;;;;;;;;;;5031018;28;20073;-79
2022/11/12 02:41:21;;;;;;;27.33;15.65;;;;;;;;;;5033076;28;20053;-78
2022/11/12 02:43:47;;;;;;;33.53;16.30;;;;;;;;;;5032492;28;20083;-79
2022/11/12 02:46:14;;;;;;;25.15;14.38;;;;;;;;;;5033340;28;20055;-79
2022/11/12 02:48:40;;;;;;;27.00;14.93;;;;;;;;;;5015439;28;20108;-79
2022/11/12 02:51:06;;;;;;;27.35;15.27;;;;;;;;;;5032965;28;20029;-79
2022/11/12 02:53:32;;;;;;;30.35;15.40;;;;;;;;;;5032901;28;20352;-79
2022/11/12 02:55:59;;;;;;;25.27;14.45;;;;;;;;;;5032895;28;20029;-79
2022/11/12 02:58:25;;;;;;;30.45;16.45;;;;;;;;;;5032791;28;20091;-79
2022/11/12 03:00:51;;;;;;;26.55;14.68;;;;;;;;;;5032992;28;20053;-81
2022/11/12 03:03:17;;;;;;;28.10;14.48;;;;;;;;;;5033004;28;20025;-80
2022/11/12 03:05:44;;;;;;;30.40;16.05;;;;;;;;;;5032703;28;20456;-80
2022/11/12 03:08:10;;;;;;;31.65;16.15;;;;;;;;;;5032802;28;20029;-81
2022/11/12 03:10:37;;;;;;;29.60;15.68;;;;;;;;;;5015132;28;20465;-81
2022/11/12 03:13:04;;;;;;;27.50;15.20;;;;;;;;;;5032671;28;20029;-80
2022/11/12 03:15:30;;;;;;;31.63;15.75;;;;;;;;;;5032941;28;20021;-81
2022/11/12 03:17:57;;;;;;;29.85;16.08;;;;;;;;;;5032638;28;20029;-81
2022/11/12 03:20:23;;;;;;;32.22;14.75;;;;;;;;;;5032529;28;20021;-78
2022/11/12 03:22:59;;;;;;;25.77;15.70;;;;;;;;;;5032468;28;20029;-81
2022/11/12 03:25:26;;;;;;;30.55;16.55;;;;;;;;;;5032595;28;20491;-81
2022/11/12 03:27:59;;;;;;;32.53;15.95;;;;;;;;;;5014383;28;20388;-80
2022/11/12 03:30:29;;;;;;;32.38;16.48;;;;;;;;;;5032256;28;20440;-81
2022/11/12 03:32:55;;;;;;;28.50;16.52;;;;;;;;;;5032354;28;20075;-80
2022/11/12 03:35:21;;;;;;;29.48;17.27;;;;;;;;;;5032384;28;20037;-80
2022/11/12 03:37:47;;;;;;;32.58;17.02;;;;;;;;;;5032344;28;20423;-80
2022/11/12 03:40:13;;;;;;;30.17;17.42;;;;;;;;;;5032036;28;20084;-80
2022/11/12 03:42:44;;;;;;;30.50;16.02;;;;;;;;;;5012705;28;20025;-80
2022/11/12 03:45:10;;;;;;;28.67;16.65;;;;;;;;;;5021796;28;20391;-80
2022/11/12 03:47:36;;;;;;;26.70;15.70;;;;;;;;;;4994794;28;20372;-80
2022/11/12 03:50:02;;;;;;;32.13;17.67;;;;;;;;;;5011480;28;20029;-80
2022/11/12 03:52:28;;;;;;;32.88;16.77;;;;;;;;;;5032022;28;20117;-80
2022/11/12 03:54:54;;;;;;;33.58;16.95;;;;;;;;;;5032515;28;20036;-80
2022/11/12 03:57:20;;;;;;;27.00;15.82;;;;;;;;;;5032117;28;20036;-80
2022/11/12 03:59:46;;;;;;;30.88;16.80;;;;;;;;;;5032083;28;20104;-80
2022/11/12 04:02:13;;;;;;;35.17;16.92;;;;;;;;;;5015021;28;20069;-80
2022/11/12 04:10:08;;;;;;;32.92;16.33;;;;;;;;;;5012871;28;20053;-80
2022/11/12 04:15:19;;;;;;;27.10;15.75;;;;;;;;;;5016496;28;20057;-80
2022/11/12 04:21:49;;;;;;;28.38;15.93;;;;;;;;;;5016411;28;20053;-80
2022/11/12 04:23:31;;;;;;;27.13;15.10;;;;;;;;;;5015428;28;20759;-80
2022/11/12 04:31:26;;;;;;;24.80;13.85;;;;;;;;;;5017372;28;20446;-80
2022/11/12 04:33:52;;;;;;;29.15;15.20;;;;;;;;;;5035733;28;20032;-80
2022/11/12 04:36:18;;;;;;;26.65;15.02;;;;;;;;;;5035520;28;20502;-80
2022/11/12 04:38:44;;;;;;;26.95;14.45;;;;;;;;;;5035201;28;20057;-80
2022/11/12 04:46:39;;;;;;;26.48;14.38;;;;;;;;;;5035685;28;20458;-80
2022/11/12 04:49:06;;;;;;;28.73;14.60;;;;;;;;;;5017521;28;20033;-79
2022/11/12 04:54:16;;;;;;;28.88;15.75;;;;;;;;;;5035536;28;20044;-80
2022/11/12 04:56:42;;;;;;;26.70;15.30;;;;;;;;;;5035130;28;20104;-80
2022/11/12 04:59:08;;;;;;;28.67;15.52;;;;;;;;;;5035052;28;20057;-80
2022/11/12 05:01:34;;;;;;;31.65;15.80;;;;;;;;;;5023340;28;20049;-80
2022/11/12 05:04:00;;;;;;;29.75;16.40;;;;;;;;;;5015271;28;20030;-80
2022/11/12 05:09:11;;;;;;;32.63;17.75;;;;;;;;;;5015399;28;20065;-80
2022/11/12 05:11:37;;;;;;;31.95;17.73;;;;;;;;;;5015237;28;20069;-80
2022/11/12 05:14:03;;;;;;;31.83;16.65;;;;;;;;;;5015205;28;20033;-80
2022/11/12 05:16:29;;;;;;;29.55;17.23;;;;;;;;;;5015018;28;20022;-80
2022/11/12 05:18:55;;;;;;;33.72;16.75;;;;;;;;;;5014973;28;20049;-80
2022/11/12 05:24:06;;;;;;;32.08;15.52;;;;;;;;;;5014575;28;20123;-80
2022/11/12 05:26:32;;;;;;;28.98;15.77;;;;;;;;;;5014919;28;20034;-80
2022/11/12 05:28:58;;;;;;;29.60;16.23;;;;;;;;;;5014839;28;20030;-80
2022/11/12 05:31:24;;;;;;;30.75;17.33;;;;;;;;;;5014915;28;20136;-79
2022/11/12 05:33:50;;;;;;;30.27;16.50;;;;;;;;;;5014688;28;20465;-80
2022/11/12 05:36:16;;;;;;;33.83;17.70;;;;;;;;;;5014816;28;20062;-80
2022/11/12 05:38:42;;;;;;;33.03;16.13;;;;;;;;;;5014524;28;20054;-80
2022/11/12 05:41:08;;;;;;;33.63;17.05;;;;;;;;;;5014475;28;20160;-80
2022/11/12 05:43:34;;;;;;;28.50;14.75;;;;;;;;;;5028501;28;20038;-81
2022/11/12 05:46:00;;;;;;;29.83;16.30;;;;;;;;;;5034261;28;20044;-80
2022/11/12 05:48:26;;;;;;;34.72;17.77;;;;;;;;;;5034698;28;20026;-80
2022/11/12 05:50:52;;;;;;;31.70;16.77;;;;;;;;;;5016329;28;20075;-80
2022/11/12 05:53:18;;;;;;;31.20;17.55;;;;;;;;;;5034035;28;20029;-80
2022/11/12 05:55:44;;;;;;;28.85;16.92;;;;;;;;;;5016275;28;20026;-80
2022/11/12 05:58:11;;;;;;;30.10;16.65;;;;;;;;;;5034052;28;20022;-80
2022/11/12 06:00:39;;;;;;;35.33;18.13;;;;;;;;;;5029381;28;20022;-80
2022/11/12 06:03:06;;;;;;;30.55;16.45;;;;;;;;;;5014288;28;20057;-80
2022/11/12 06:05:32;;;;;;;36.55;16.23;;;;;;;;;;5014237;28;20066;-80
2022/11/12 06:07:59;;;;;;;25.70;15.73;;;;;;;;;;5014166;28;20022;-80
2022/11/12 06:10:25;;;;;;;34.22;16.52;;;;;;;;;;5014057;28;20040;-80
2022/11/12 06:12:51;;;;;;;30.55;15.50;;;;;;;;;;4996065;28;20117;-79
2022/11/12 06:15:18;;;;;;;29.75;14.90;;;;;;;;;;5014399;28;20025;-80
2022/11/12 06:17:44;;;;;;;26.20;14.63;;;;;;;;;;5013811;28;20021;-80
2022/11/12 06:20:10;;;;;;;25.30;15.68;;;;;;;;;;5013961;28;20041;-80
2022/11/12 06:22:36;;;;;;;32.00;18.45;;;;;;;;;;5014076;28;20056;-80
2022/11/12 06:25:03;;;;;;;35.30;17.75;;;;;;;;;;5014117;28;20117;-80
2022/11/12 06:27:29;;;;;;;31.05;17.38;;;;;;;;;;5014016;28;20045;-80
2022/11/12 06:29:55;;;;;;;28.35;15.65;;;;;;;;;;5013555;28;20414;-80
2022/11/12 06:32:21;;;;;;;24.67;15.13;;;;;;;;;;5013856;28;20369;-80
2022/11/12 06:34:47;;;;;;;27.90;15.43;;;;;;;;;;5013293;28;20084;-80
2022/11/12 06:37:13;;;;;;;29.05;14.35;;;;;;;;;;5018540;28;20024;-80
2022/11/12 06:39:39;;;;;;;26.85;14.50;;;;;;;;;;5033238;28;20046;-80
2022/11/12 06:42:05;;;;;;;26.65;15.15;;;;;;;;;;5032886;28;20100;-80
2022/11/12 06:44:31;;;;;;;29.48;15.85;;;;;;;;;;5016818;28;20109;-80
2022/11/12 06:46:57;;;;;;;25.98;14.50;;;;;;;;;;5013581;28;20038;-80
2022/11/12 06:49:23;;;;;;;27.63;15.52;;;;;;;;;;5033140;28;20375;-80
2022/11/12 06:51:50;;;;;;;28.73;15.65;;;;;;;;;;5032811;28;20383;-79
2022/11/12 06:54:16;;;;;;;24.63;14.48;;;;;;;;;;5024841;28;20026;-80
2022/11/12 06:56:42;;;;;;;30.73;15.30;;;;;;;;;;5013088;28;20017;-80
2022/11/12 06:59:08;;;;;;;23.75;13.70;;;;;;;;;;5020987;28;20025;-80
2022/11/12 07:01:34;;;;;;;28.45;15.15;;;;;;;;;;5032643;28;20092;-80
2022/11/12 07:04:00;;;;;;;25.60;14.88;;;;;;;;;;5034244;28;20076;-80
2022/11/12 07:06:26;;;;;;;29.50;14.80;;;;;;;;;;5038122;28;20055;-80
2022/11/12 07:08:52;;;;;;;29.05;15.02;;;;;;;;;;5009601;28;20769;-80
2022/11/12 07:11:19;;;;;;;25.88;13.63;;;;;;;;;;5032809;28;20034;-80
2022/11/12 07:13:46;;;;;;;28.10;14.50;;;;;;;;;;5016248;28;20497;-79
2022/11/12 07:16:18;;;;;;;30.55;15.02;;;;;;;;;;5032448;28;20033;-80
2022/11/12 07:18:45;;;;;;;28.92;15.23;;;;;;;;;;5032691;28;20032;-80
2022/11/12 07:21:13;;;;;;;29.13;15.32;;;;;;;;;;5032649;28;20037;-80
2022/11/12 07:23:39;;;;;;;28.52;16.15;;;;;;;;;;5032623;28;20104;-80
2022/11/12 07:26:06;;;;;;;34.22;16.80;;;;;;;;;;5022555;28;20030;-80
2022/11/12 07:28:32;;;;;;;34.60;17.30;;;;;;;;;;5012677;28;20034;-80
2022/11/12 07:31:00;;;;;;;32.65;17.98;;;;;;;;;;5012592;28;20033;-80
2022/11/12 07:33:26;;;;;;;31.55;17.50;;;;;;;;;;5025884;28;20022;-80
2022/11/12 07:36:06;;;;;;;34.80;18.35;;;;;;;;;;5024201;28;20076;-80
2022/11/12 07:38:34;;;;;;;31.10;15.80;;;;;;;;;;5018162;28;20066;-80
2022/11/12 07:41:04;;;;;;;32.70;16.60;;;;;;;;;;5030461;28;20034;-80
2022/11/12 07:43:31;;;;;;;27.85;15.55;;;;;;;;;;5018342;28;20357;-80
2022/11/12 07:45:58;;;;;;;32.42;16.27;;;;;;;;;;5015611;28;20490;-80
2022/11/12 07:48:24;;;;;;;34.80;16.65;;;;;;;;;;5032162;28;20018;-80
2022/11/12 07:50:50;;;;;;;30.80;16.98;;;;;;;;;;5032287;28;20036;-80
2022/11/12 07:53:16;;;;;;;30.83;16.15;;;;;;;;;;5032497;28;20491;-80
2022/11/12 07:55:42;;;;;;;29.85;15.85;;;;;;;;;;5032402;28;20025;-80
2022/11/12 07:58:08;;;;;;;29.83;15.65;;;;;;;;;;5016618;28;20022;-80
2022/11/12 08:00:34;;;;;;;29.80;16.02;;;;;;;;;;5018708;28;20030;-79
2022/11/12 08:03:00;;;;;;;39.83;16.92;;;;;;;;;;5025905;28;20540;-80
2022/11/12 08:05:26;;;;;;;36.38;17.55;;;;;;;;;;5022886;28;20029;-80
2022/11/12 08:07:55;;;;;;;37.63;17.45;;;;;;;;;;5032245;28;20056;-80
2022/11/12 08:10:21;;;;;;;39.17;16.95;;;;;;;;;;5032028;28;20030;-80
2022/11/12 08:12:47;;;;;;;36.50;17.77;;;;;;;;;;5031981;28;20054;-80
2022/11/12 08:15:14;;;;;;;32.17;17.38;;;;;;;;;;5017693;28;20034;-80
2022/11/12 08:17:40;;;;;;;37.20;18.70;;;;;;;;;;4994147;28;20068;-80
2022/11/12 08:20:06;;;;;;;36.40;18.65;;;;;;;;;;5032225;28;20064;-80
2022/11/12 08:22:32;;;;;;;37.15;18.48;;;;;;;;;;5031721;28;20030;-80
2022/11/12 08:24:58;;;;;;;35.85;18.35;;;;;;;;;;5032738;28;20029;-80
2022/11/12 08:27:24;;;;;;;33.88;20.17;;;;;;;;;;5031928;28;20040;-80
2022/11/12 08:29:50;;;;;;;36.00;18.63;;;;;;;;;;5031631;28;20081;-80
2022/11/12 08:32:16;;;;;;;40.42;20.63;;;;;;;;;;5031439;28;20083;-80
2022/11/12 08:34:42;;;;;;;47.00;23.77;;;;;;;;;;5031621;28;20021;-80
2022/11/12 08:37:09;;;;;;;49.42;25.35;;;;;;;;;;5031681;28;20025;-80
2022/11/12 08:39:35;;;;;;;54.67;25.23;;;;;;;;;;5024074;28;20050;-80
2022/11/12 08:42:01;;;;;;;49.95;24.92;;;;;;;;;;5019389;28;20040;-80
2022/11/12 08:44:27;;;;;;;42.88;22.90;;;;;;;;;;5028636;28;20043;-80
2022/11/12 08:46:53;;;;;;;58.13;26.42;;;;;;;;;;5029970;28;20018;-80
2022/11/12 08:49:19;;;;;;;56.22;27.25;;;;;;;;;;5031523;28;20503;-80
2022/11/12 08:51:45;;;;;;;58.58;26.63;;;;;;;;;;5014687;28;20108;-80
2022/11/12 08:54:11;;;;;;;49.28;25.23;;;;;;;;;;4994590;28;20064;-80
2022/11/12 08:56:38;;;;;;;39.33;22.25;;;;;;;;;;5012847;28;20065;-80
2022/11/12 08:59:05;;;;;;;40.33;22.10;;;;;;;;;;5015530;28;20072;-80
2022/11/12 09:01:31;;;;;;;41.40;23.23;;;;;;;;;;5030521;28;20100;-80
2022/11/12 09:03:57;;;;;;;37.17;19.52;;;;;;;;;;5035088;28;20041;-80
2022/11/12 09:06:23;;;;;;;39.42;18.63;;;;;;;;;;5035279;28;20032;-80
2022/11/12 09:08:49;;;;;;;37.97;20.83;;;;;;;;;;5034639;28;20025;-80
2022/11/12 09:11:15;;;;;;;37.90;21.48;;;;;;;;;;5034583;28;20038;-80
2022/11/12 09:13:41;;;;;;;37.40;19.73;;;;;;;;;;5023594;28;20100;-80
2022/11/12 09:16:09;;;;;;;36.08;19.63;;;;;;;;;;5024237;28;20061;-80
2022/11/12 09:18:35;;;;;;;31.25;18.25;;;;;;;;;;5048009;28;20028;-80
2022/11/12 09:21:05;;;;;;;28.48;16.58;;;;;;;;;;5054753;28;20408;-80
2022/11/12 09:23:33;;;;;;;29.55;16.90;;;;;;;;;;5054486;28;20036;-80
2022/11/12 09:25:59;;;;;;;26.60;16.63;;;;;;;;;;5054497;28;20021;-80
2022/11/12 09:28:25;;;;;;;29.70;16.98;;;;;;;;;;5054280;28;20044;-80
2022/11/12 09:30:52;;;;;;;26.23;16.45;;;;;;;;;;5054524;28;20422;-80
2022/11/12 09:33:19;;;;;;;25.80;15.30;;;;;;;;;;5035710;28;20119;-79
2022/11/12 09:35:45;;;;;;;25.67;15.25;;;;;;;;;;5034272;28;20018;-80
2022/11/12 09:38:13;;;;;;;22.00;14.38;;;;;;;;;;5016444;28;20021;-80
2022/11/12 09:40:42;;;;;;;22.33;13.93;;;;;;;;;;5031222;28;20038;-80
2022/11/12 09:43:11;;;;;;;23.45;13.70;;;;;;;;;;5030415;28;20037;-80
2022/11/12 09:45:37;;;;;;;20.77;12.23;;;;;;;;;;5026340;28;20029;-80
2022/11/12 09:48:06;;;;;;;19.60;10.65;;;;;;;;;;4996715;28;20036;-80
2022/11/12 09:50:53;;;;;;;18.95;11.30;;;;;;;;;;5014358;28;20480;-80
2022/11/12 09:53:32;;;;;;;20.70;10.75;;;;;;;;;;4986615;28;20050;-80
2022/11/12 09:55:58;;;;;;;18.88;11.18;;;;;;;;;;5014211;28;20022;-79
2022/11/12 09:58:26;;;;;;;13.32;9.13;;;;;;;;;;4996808;28;20092;-80
2022/11/12 10:00:54;;;;;;;16.10;9.25;;;;;;;;;;5021467;28;20056;-80
2022/11/12 10:03:20;;;;;;;12.48;8.15;;;;;;;;;;5033953;28;20025;-80
2022/11/12 10:05:56;;;;;;;12.90;8.27;;;;;;;;;;5033790;28;20443;-80
2022/11/12 10:08:37;;;;;;;13.43;7.32;;;;;;;;;;5033038;28;20092;-79
2022/11/12 10:11:22;;;;;;;12.13;8.00;;;;;;;;;;5030854;28;20057;-79
2022/11/12 10:13:54;;;;;;;12.15;7.63;;;;;;;;;;5014865;28;20030;-80
2022/11/12 10:16:43;;;;;;;15.50;7.78;;;;;;;;;;5000097;28;20029;-80
2022/11/12 10:19:15;;;;;;;14.63;7.20;;;;;;;;;;5028544;28;20091;-80
2022/11/12 10:21:44;;;;;;;12.88;6.82;;;;;;;;;;5033587;28;20026;-79
2022/11/12 10:24:11;;;;;;;11.63;6.70;;;;;;;;;;5014865;28;20077;-80
2022/11/12 10:26:38;;;;;;;18.52;6.45;;;;;;;;;;5014158;28;20357;-80
2022/11/12 10:29:10;;;;;;;12.23;6.45;;;;;;;;;;5030907;28;20033;-80
2022/11/12 10:31:37;;;;;;;11.98;6.65;;;;;;;;;;5033395;28;20026;-80
2022/11/12 10:34:20;;;;;;;12.88;6.50;;;;;;;;;;5003402;28;20075;-81
2022/11/12 10:36:48;;;;;;;8.90;6.13;;;;;;;;;;5011334;28;20029;-81
2022/11/12 10:39:31;;;;;;;9.93;5.53;;;;;;;;;;4995709;28;20341;-80
2022/11/12 10:42:09;;;;;;;10.55;5.90;;;;;;;;;;4997553;28;20045;-80
2022/11/12 10:44:35;;;;;;;10.10;5.30;;;;;;;;;;5004031;28;20065;-80
2022/11/12 10:47:20;;;;;;;9.85;4.97;;;;;;;;;;5033140;28;20028;-81
2022/11/12 10:50:04;;;;;;;10.68;5.40;;;;;;;;;;5016762;28;20029;-81
2022/11/12 10:52:30;;;;;;;8.43;5.43;;;;;;;;;;4995458;28;20033;-80
2022/11/12 10:55:04;;;;;;;8.73;4.95;;;;;;;;;;5013284;28;20029;-81
2022/11/12 10:57:30;;;;;;;9.45;5.55;;;;;;;;;;4995521;28;20026;-80
2022/11/12 11:00:06;;;;;;;10.27;6.00;;;;;;;;;;5013182;28;20026;-80
2022/11/12 11:02:32;;;;;;;7.90;5.03;;;;;;;;;;5013518;28;20022;-80
2022/11/12 11:04:58;;;;;;;9.02;5.55;;;;;;;;;;4995470;28;20041;-82
2022/11/12 11:07:25;;;;;;;9.30;5.18;;;;;;;;;;4995571;28;20038;-82
2022/11/12 11:09:55;;;;;;;8.93;5.40;;;;;;;;;;5013008;28;20030;-83
2022/11/12 11:12:29;;;;;;;8.68;5.15;;;;;;;;;;5015382;28;20029;-83
2022/11/12 11:15:18;;;;;;;7.90;5.10;;;;;;;;;;5014881;28;20029;-82
2022/11/12 11:17:44;;;;;;;9.48;4.70;;;;;;;;;;5032473;28;20056;-82
2022/11/12 11:20:33;;;;;;;7.70;4.88;;;;;;;;;;5013779;28;20387;-80
2022/11/12 11:23:03;;;;;;;7.75;4.88;;;;;;;;;;5013830;28;20029;-79
2022/11/12 11:25:29;;;;;;;8.50;5.13;;;;;;;;;;5014767;28;20082;-79
2022/11/12 11:27:55;;;;;;;16.65;8.25;;;;;;;;;;5014659;28;20052;-80
2022/11/12 11:30:21;;;;;;;18.15;8.70;;;;;;;;;;5028372;28;20424;-79
2022/11/12 11:33:04;;;;;;;16.98;9.18;;;;;;;;;;5014789;28;20033;-80
2022/11/12 11:35:43;;;;;;;12.98;7.43;;;;;;;;;;5032676;28;20044;-80
2022/11/12 11:38:15;;;;;;;12.85;6.78;;;;;;;;;;5024975;28;20491;-80
2022/11/12 11:41:01;;;;;;;23.33;7.55;;;;;;;;;;5030875;28;20049;-80
2022/11/12 11:43:27;;;;;;;13.05;6.78;;;;;;;;;;5018677;28;20484;-80
2022/11/12 11:46:05;;;;;;;10.25;6.10;;;;;;;;;;5012749;28;20037;-80
2022/11/12 11:48:31;;;;;;;9.70;5.15;;;;;;;;;;5029333;28;20022;-79
2022/11/12 11:51:16;;;;;;;8.93;4.70;;;;;;;;;;5014328;28;20021;-80
2022/11/12 11:53:42;;;;;;;9.10;4.95;;;;;;;;;;5005144;28;20045;-80
2022/11/12 11:56:20;;;;;;;8.07;5.20;;;;;;;;;;5023602;28;20030;-80
2022/11/12 11:58:58;;;;;;;9.35;5.13;;;;;;;;;;5026839;28;20038;-80
2022/11/12 12:01:34;;;;;;;8.63;5.25;;;;;;;;;;5031933;28;20079;-81
2022/11/12 12:04:03;;;;;;;10.93;5.32;;;;;;;;;;5031942;28;20049;-80
2022/11/12 12:06:31;;;;;;;7.50;5.10;;;;;;;;;;5031840;28;20042;-80
2022/11/12 12:09:06;;;;;;;8.23;5.22;;;;;;;;;;5031694;28;20033;-80
2022/11/12 12:11:42;;;;;;;7.72;5.68;;;;;;;;;;5031913;28;20120;-80
2022/11/12 12:14:26;;;;;;;13.27;5.80;;;;;;;;;;5031830;28;20460;-80
2022/11/12 12:16:52;;;;;;;9.50;5.82;;;;;;;;;;5031780;28;20029;-80
2022/11/12 12:19:24;;;;;;;9.48;5.40;;;;;;;;;;5031917;28;20068;-80
2022/11/12 12:21:51;;;;;;;13.60;6.70;;;;;;;;;;5031696;28;20041;-80
2022/11/12 12:24:20;;;;;;;9.50;6.45;;;;;;;;;;5031831;28;20026;-80
2022/11/12 12:26:53;;;;;;;13.02;6.13;;;;;;;;;;5031514;28;20482;-80
2022/11/12 12:29:28;;;;;;;12.95;6.00;;;;;;;;;;5031901;28;20029;-80
2022/11/12 12:32:05;;;;;;;8.82;5.40;;;;;;;;;;5033127;28;20104;-80
2022/11/12 12:34:32;;;;;;;10.48;5.50;;;;;;;;;;5035432;28;20034;-80
2022/11/12 12:37:06;;;;;;;12.80;5.47;;;;;;;;;;5017520;28;20108;-82
2022/11/12 12:39:43;;;;;;;7.53;4.72;;;;;;;;;;5035141;28;20052;-81
2022/11/12 12:42:17;;;;;;;10.48;5.57;;;;;;;;;;5033740;28;20083;-80
2022/11/12 12:45:00;;;;;;;6.60;4.90;;;;;;;;;;5018770;28;20444;-80
2022/11/12 12:47:38;;;;;;;7.57;4.45;;;;;;;;;;5009421;28;20026;-80
2022/11/12 12:50:07;;;;;;;6.78;4.22;;;;;;;;;;5015428;28;20469;-80
2022/11/12 12:52:51;;;;;;;7.53;5.00;;;;;;;;;;5027647;28;20088;-80
2022/11/12 12:55:34;;;;;;;7.50;3.80;;;;;;;;;;5027340;28;20147;-80
2022/11/12 12:58:01;;;;;;;9.38;4.82;;;;;;;;;;5034790;28;20028;-80
2022/11/12 13:00:47;;;;;;;5.97;4.15;;;;;;;;;;5034850;28;20072;-80
2022/11/12 13:03:13;;;;;;;9.68;4.00;;;;;;;;;;5034786;28;20021;-80
2022/11/12 13:05:39;;;;;;;7.22;3.97;;;;;;;;;;5034988;28;20436;-80
2022/11/12 13:08:10;;;;;;;8.80;3.72;;;;;;;;;;5034604;28;20026;-80
2022/11/12 13:10:49;;;;;;;8.45;4.05;;;;;;;;;;5034429;28;20037;-80
2022/11/12 13:13:18;;;;;;;6.85;4.25;;;;;;;;;;5034323;28;20029;-79
2022/11/12 13:16:02;;;;;;;6.32;3.28;;;;;;;;;;5016689;28;20025;-77
2022/11/12 13:18:40;;;;;;;9.23;4.05;;;;;;;;;;5034191;28;20025;-77
2022/11/12 13:21:09;;;;;;;5.30;3.65;;;;;;;;;;5033968;28;20025;-77
2022/11/12 13:24:07;;;;;;;8.43;4.10;;;;;;;;;;5034091;28;20032;-78
2022/11/12 13:26:53;;;;;;;6.35;2.50;;;;;;;;;;5016739;28;20017;-78
2022/11/12 13:29:28;;;;;;;8.15;3.00;;;;;;;;;;5016386;28;20112;-78
2022/11/12 13:32:13;;;;;;;6.22;2.72;;;;;;;;;;5034248;28;20167;-77
2022/11/12 13:34:39;;;;;;;6.80;2.90;;;;;;;;;;5016457;28;20026;-77
2022/11/12 13:37:05;;;;;;;6.80;2.95;;;;;;;;;;5016646;28;20030;-77
2022/11/12 13:39:35;;;;;;;5.35;2.25;;;;;;;;;;5016415;28;20020;-77
2022/11/12 13:44:53;;;;;;;3.95;2.30;;;;;;;;;;5033457;28;20392;-78
2022/11/12 13:47:23;;;;;;;4.80;2.15;;;;;;;;;;5033921;28;20049;-77
2022/11/12 13:49:49;;;;;;;4.75;2.75;;;;;;;;;;5033932;28;20029;-77
2022/11/12 13:52:18;;;;;;;3.75;1.60;;;;;;;;;;5033773;28;20037;-77
2022/11/12 13:54:44;;;;;;;2.80;1.23;;;;;;;;;;5015969;28;20464;-77
2022/11/12 13:57:19;;;;;;;5.13;1.40;;;;;;;;;;5016340;28;20399;-77
2022/11/12 13:59:48;;;;;;;3.92;1.10;;;;;;;;;;5033837;28;20014;-77
2022/11/12 14:02:23;;;;;;;3.03;1.63;;;;;;;;;;5033360;28;20460;-77
2022/11/12 14:04:50;;;;;;;4.63;1.90;;;;;;;;;;5033463;28;20017;-76
2022/11/12 14:07:34;;;;;;;7.97;3.05;;;;;;;;;;5033736;28;20049;-77
2022/11/12 14:10:30;;;;;;;6.43;2.97;;;;;;;;;;5033903;28;20028;-77
2022/11/12 14:13:03;;;;;;;3.80;1.73;;;;;;;;;;4963452;28;20497;-77
2022/11/12 14:15:29;;;;;;;8.35;1.50;;;;;;;;;;5033733;28;20029;-77
2022/11/12 14:18:11;;;;;;;2.58;1.85;;;;;;;;;;5015818;28;20140;-77
2022/11/12 14:20:40;;;;;;;5.72;1.85;;;;;;;;;;5033306;28;20475;-78
2022/11/12 14:23:18;;;;;;;5.10;1.60;;;;;;;;;;5033245;28;20463;-78
2022/11/12 14:25:48;;;;;;;5.60;2.10;;;;;;;;;;5015404;28;20083;-77
2022/11/12 14:28:22;;;;;;;3.65;1.90;;;;;;;;;;5033317;28;20336;-77
2022/11/12 14:30:49;;;;;;;4.47;2.40;;;;;;;;;;5033503;28;20036;-77
2022/11/12 14:33:20;;;;;;;3.75;2.80;;;;;;;;;;5032912;28;20522;-77
2022/11/12 14:35:46;;;;;;;4.47;2.38;;;;;;;;;;5033491;28;20025;-77
2022/11/12 14:38:30;;;;;;;3.33;1.80;;;;;;;;;;5032808;28;20053;-77
2022/11/12 14:41:07;;;;;;;4.30;1.80;;;;;;;;;;5032877;28;20045;-77
2022/11/12 14:43:36;;;;;;;4.80;1.88;;;;;;;;;;5032666;28;20040;-78
2022/11/12 14:46:03;;;;;;;4.28;1.48;;;;;;;;;;5033141;28;20025;-77
2022/11/12 14:48:33;;;;;;;3.47;1.40;;;;;;;;;;5032950;28;20036;-78
2022/11/12 14:51:03;;;;;;;12.90;2.30;;;;;;;;;;5015195;28;20387;-77
2022/11/12 14:53:37;;;;;;;4.72;2.40;;;;;;;;;;5033028;28;20034;-77
2022/11/12 14:56:04;;;;;;;5.60;1.85;;;;;;;;;;5015413;28;20420;-77
2022/11/12 14:58:31;;;;;;;3.03;2.15;;;;;;;;;;5032979;28;20021;-78
2022/11/12 15:00:57;;;;;;;5.07;3.67;;;;;;;;;;5032617;28;20033;-78
2022/11/12 15:03:24;;;;;;;8.25;4.20;;;;;;;;;;5032877;28;20025;-78
2022/11/12 15:06:03;;;;;;;5.82;3.10;;;;;;;;;;5014735;28;20033;-78
2022/11/12 15:08:52;;;;;;;4.78;3.60;;;;;;;;;;5032604;28;20075;-77